createdAt,value
2018-08-25T00:02:11.425Z,94847.05
2018-08-25T00:04:40.858Z,94840.45
2018-08-25T00:07:10.271Z,94846.80
2018-08-25T00:09:39.515Z,94842.84
2018-08-25T00:12:08.743Z,94841.20
2018-08-25T00:14:37.969Z,94842.98
2018-08-25T00:17:07.235Z,94840.20
2018-08-25T00:19:36.488Z,94840.44
2018-08-25T00:22:05.718Z,94840.83
2018-08-25T00:24:34.966Z,94844.48
2018-08-25T00:27:04.235Z,94844.27
2018-08-25T00:29:33.483Z,94839.20
2018-08-25T00:32:02.727Z,94837.74
2018-08-25T00:34:31.958Z,94838.30
2018-08-25T00:37:01.206Z,94840.02
2018-08-25T00:39:30.435Z,94836.88
2018-08-25T00:41:59.651Z,94837.51
2018-08-25T00:44:28.896Z,94835.16
2018-08-25T00:46:58.146Z,94833.39
2018-08-25T00:49:27.399Z,94829.86
2018-08-25T00:51:56.641Z,94829.90
2018-08-25T00:54:25.908Z,94829.16
2018-08-25T00:56:55.254Z,94824.52
2018-08-25T00:59:25.898Z,94825.55
2018-08-25T01:01:55.059Z,94824.27
2018-08-25T01:04:24.319Z,94815.00
2018-08-25T01:06:53.576Z,94820.09
2018-08-25T01:09:22.827Z,94816.56
2018-08-25T01:11:52.057Z,94816.73
2018-08-25T01:14:21.307Z,94822.84
2018-08-25T01:16:50.559Z,94829.44
2018-08-25T01:19:19.782Z,94824.23
2018-08-25T01:21:49.019Z,94828.29
2018-08-25T01:24:18.256Z,94837.56
2018-08-25T01:26:47.515Z,94827.90
2018-08-25T01:29:16.738Z,94832.53
2018-08-25T01:31:45.998Z,94835.00
2018-08-25T01:34:15.241Z,94829.61
2018-08-25T01:36:44.483Z,94835.42
2018-08-25T01:39:13.710Z,94831.73
2018-08-25T01:41:42.950Z,94835.27
2018-08-25T01:44:12.176Z,94833.10
2018-08-25T01:46:41.410Z,94836.24
2018-08-25T01:49:10.647Z,94828.83
2018-08-25T01:51:39.934Z,94828.25
2018-08-25T01:54:10.189Z,94837.41
2018-08-25T01:56:39.455Z,94833.50
2018-08-25T01:59:09.167Z,94826.23
2018-08-25T02:01:38.431Z,94822.12
2018-08-25T02:04:07.653Z,94829.14
2018-08-25T02:06:36.886Z,94826.47
2018-08-25T02:09:10.637Z,94825.94
2018-08-25T02:11:40.110Z,94821.22
2018-08-25T02:14:09.815Z,94817.17
2018-08-25T02:16:39.690Z,94811.82
2018-08-25T02:19:08.943Z,94811.29
2018-08-25T02:21:38.288Z,94814.20
2018-08-25T02:24:07.551Z,94816.84
2018-08-25T02:26:36.783Z,94814.89
2018-08-25T02:29:06.037Z,94810.39
2018-08-25T02:31:35.259Z,94810.72
2018-08-25T02:34:04.497Z,94806.66
2018-08-25T02:36:33.729Z,94815.41
2018-08-25T02:39:03.000Z,94814.20
2018-08-25T02:41:32.238Z,94813.03
2018-08-25T02:44:01.462Z,94812.64
2018-08-25T02:46:30.688Z,94811.18
2018-08-25T02:48:59.919Z,94808.83
2018-08-25T02:51:29.151Z,94808.55
2018-08-25T02:53:58.383Z,94806.94
2018-08-25T02:56:27.665Z,94810.19
2018-08-25T02:58:56.889Z,94810.39
2018-08-25T03:01:26.259Z,94811.47
2018-08-25T03:03:55.470Z,94817.98
2018-08-25T03:06:24.728Z,94812.84
2018-08-25T03:08:53.967Z,94817.77
2018-08-25T03:11:23.207Z,94816.91
2018-08-25T03:13:52.747Z,94815.20
2018-08-25T03:16:21.907Z,94814.33
2018-08-25T03:18:51.133Z,94812.52
2018-08-25T03:21:20.361Z,94819.69
2018-08-25T03:23:49.588Z,94812.33
2018-08-25T03:26:18.817Z,94812.71
2018-08-25T03:28:48.046Z,94820.72
2018-08-25T03:31:17.272Z,94814.30
2018-08-25T03:33:46.651Z,94807.74
2018-08-25T03:36:17.127Z,94812.30
2018-08-25T03:38:46.370Z,94816.17
2018-08-25T03:41:15.611Z,94818.20
2018-08-25T03:43:44.876Z,94823.14
2018-08-25T03:46:14.098Z,94816.65
2018-08-25T03:48:43.365Z,94817.86
2018-08-25T03:51:12.601Z,94819.78
2018-08-25T03:53:41.872Z,94815.31
2018-08-25T03:56:11.086Z,94810.13
2018-08-25T03:58:40.317Z,94812.91
2018-08-25T04:01:09.554Z,94809.77
2018-08-25T04:03:38.791Z,94799.55
2018-08-25T04:06:08.022Z,94800.39
2018-08-25T04:08:37.253Z,94800.09
2018-08-25T04:11:06.494Z,94791.80
2018-08-25T04:13:35.742Z,94795.03
2018-08-25T04:16:04.950Z,94785.09
2018-08-25T04:18:34.209Z,94788.22
2018-08-25T04:21:03.453Z,94789.92
2018-08-25T04:23:32.669Z,94782.34
2018-08-25T04:26:01.890Z,94787.95
2018-08-25T04:28:31.126Z,94789.20
2018-08-25T04:31:00.404Z,94787.66
2018-08-25T04:33:29.668Z,94776.41
2018-08-25T04:35:58.880Z,94772.23
2018-08-25T04:38:28.107Z,94774.89
2018-08-25T04:40:57.335Z,94781.70
2018-08-25T04:43:26.564Z,94783.88
2018-08-25T04:45:55.814Z,94790.46
2018-08-25T04:48:25.064Z,94788.65
2018-08-25T04:50:54.275Z,94787.88
2018-08-25T04:53:23.494Z,94782.56
2018-08-25T04:55:52.743Z,94785.95
2018-08-25T04:58:21.957Z,94789.05
2018-08-25T05:00:51.195Z,94790.95
2018-08-25T05:03:20.423Z,94791.40
2018-08-25T05:05:49.646Z,94792.64
2018-08-25T05:08:18.879Z,94797.56
2018-08-25T05:11:18.807Z,94792.88
2018-08-25T05:13:48.043Z,94797.22
2018-08-25T05:16:17.272Z,94792.82
2018-08-25T05:18:46.508Z,94793.83
2018-08-25T05:21:15.733Z,94792.52
2018-08-25T05:23:45.036Z,94792.52
2018-08-25T05:26:14.254Z,94788.48
2018-08-25T05:28:43.494Z,94782.38
2018-08-25T05:31:12.712Z,94786.94
2018-08-25T05:33:41.943Z,94793.39
2018-08-25T05:36:11.207Z,94789.76
2018-08-25T05:38:40.443Z,94788.50
2018-08-25T05:41:09.671Z,94786.45
2018-08-25T05:43:38.928Z,94782.09
2018-08-25T05:46:08.171Z,94776.61
2018-08-25T05:48:37.429Z,94784.16
2018-08-25T05:51:09.786Z,94784.55
2018-08-25T05:53:39.021Z,94789.50
2018-08-25T05:56:08.424Z,94789.97
2018-08-25T05:58:37.672Z,94792.32
2018-08-25T06:01:06.886Z,94791.35
2018-08-25T06:03:36.141Z,94793.98
2018-08-25T06:06:05.359Z,94788.27
2018-08-25T06:08:34.607Z,94785.22
2018-08-25T06:11:03.861Z,94787.86
2018-08-25T06:13:33.192Z,94783.86
2018-08-25T06:16:02.351Z,94782.48
2018-08-25T06:18:31.579Z,94785.86
2018-08-25T06:21:00.807Z,94783.95
2018-08-25T06:23:30.059Z,94782.20
2018-08-25T06:25:59.268Z,94786.92
2018-08-25T06:28:28.513Z,94781.64
2018-08-25T06:30:57.871Z,94784.08
2018-08-25T06:33:27.131Z,94786.52
2018-08-25T06:35:56.352Z,94786.63
2018-08-25T06:38:25.571Z,94779.91
2018-08-25T06:40:54.799Z,94786.40
2018-08-25T06:43:24.044Z,94784.94
2018-08-25T06:45:58.514Z,94780.09
2018-08-25T06:48:27.804Z,94775.02
2018-08-25T06:50:57.017Z,94777.08
2018-08-25T06:53:26.272Z,94781.16
2018-08-25T06:55:55.500Z,94782.56
2018-08-25T06:58:24.727Z,94779.94
2018-08-25T07:00:54.252Z,94782.71
2018-08-25T07:03:23.486Z,94778.00
2018-08-25T07:05:52.869Z,94780.57
2018-08-25T07:08:22.067Z,94787.34
2018-08-25T07:10:51.292Z,94788.48
2018-08-25T07:13:20.517Z,94789.73
2018-08-25T07:15:49.739Z,94785.94
2018-08-25T07:18:18.980Z,94782.28
2018-08-25T07:20:48.215Z,94786.22
2018-08-25T07:23:17.476Z,94783.95
2018-08-25T07:25:46.769Z,94779.45
2018-08-25T07:28:17.167Z,94771.18
2018-08-25T07:30:46.412Z,94772.28
2018-08-25T07:33:15.646Z,94770.95
2018-08-25T07:35:44.865Z,94766.59
2018-08-25T07:38:15.001Z,94763.95
2018-08-25T07:40:45.406Z,94757.23
2018-08-25T07:43:14.638Z,94765.48
2018-08-25T07:45:43.937Z,94765.92
2018-08-25T07:48:13.180Z,94761.95
2018-08-25T07:50:42.395Z,94763.55
2018-08-25T07:53:11.643Z,94762.52
2018-08-25T07:55:40.954Z,94766.36
2018-08-25T07:58:10.175Z,94770.05
2018-08-25T08:00:39.420Z,94769.27
2018-08-25T08:03:08.634Z,94769.33
2018-08-25T08:05:37.955Z,94769.20
2018-08-25T08:08:07.096Z,94758.73
2018-08-25T08:10:36.355Z,94761.94
2018-08-25T08:13:05.606Z,94763.88
2018-08-25T08:15:34.837Z,94763.84
2018-08-25T08:18:04.062Z,94768.41
2018-08-25T08:20:33.291Z,94759.36
2018-08-25T08:23:02.506Z,94768.48
2018-08-25T08:25:31.948Z,94755.03
2018-08-25T08:28:01.429Z,94756.24
2018-08-25T08:30:30.668Z,94763.84
2018-08-25T08:32:59.961Z,94755.02
2018-08-25T08:35:29.134Z,94757.53
2018-08-25T08:37:58.357Z,94763.75
2018-08-25T08:40:27.575Z,94764.20
2018-08-25T08:42:56.855Z,94763.13
2018-08-25T08:45:26.111Z,94769.33
2018-08-25T08:47:55.328Z,94760.88
2018-08-25T08:50:24.621Z,94767.64
2018-08-25T08:52:53.778Z,94766.75
2018-08-25T08:55:23.011Z,94764.34
2018-08-25T08:57:52.251Z,94767.15
2018-08-25T09:00:21.498Z,94765.09
2018-08-25T09:02:50.764Z,94770.66
2018-08-25T09:05:20.007Z,94773.64
2018-08-25T09:07:49.359Z,94772.01
2018-08-25T09:10:18.627Z,94777.93
2018-08-25T09:12:47.839Z,94775.10
2018-08-25T09:15:17.095Z,94777.47
2018-08-25T09:17:46.326Z,94775.83
2018-08-25T09:20:15.647Z,94775.08
2018-08-25T09:22:44.871Z,94780.11
2018-08-25T09:25:14.135Z,94777.45
2018-08-25T09:27:46.475Z,94773.25
2018-08-25T09:30:15.724Z,94759.30
2018-08-25T09:32:44.953Z,94760.92
2018-08-25T09:35:14.190Z,94762.19
2018-08-25T09:37:43.398Z,94759.75
2018-08-25T09:40:12.620Z,94756.28
2018-08-25T09:42:41.852Z,94761.59
2018-08-25T09:45:11.078Z,94766.22
2018-08-25T09:47:40.300Z,94762.63
2018-08-25T09:50:09.527Z,94763.80
2018-08-25T09:52:38.755Z,94762.13
2018-08-25T09:55:08.246Z,94761.15
2018-08-25T09:57:37.483Z,94764.75
2018-08-25T10:00:06.752Z,94755.20
2018-08-25T10:02:36.240Z,94758.94
2018-08-25T10:05:06.391Z,94757.37
2018-08-25T10:07:35.606Z,94753.50
2018-08-25T10:10:05.967Z,94751.48
2018-08-25T10:12:35.215Z,94754.34
2018-08-25T10:15:04.452Z,94756.82
2018-08-25T10:17:34.960Z,94750.04
2018-08-25T10:20:04.213Z,94761.69
2018-08-25T10:22:33.456Z,94763.76
2018-08-25T10:25:02.680Z,94755.98
2018-08-25T10:27:31.932Z,94757.39
2018-08-25T10:30:01.159Z,94751.45
2018-08-25T10:32:30.395Z,94753.36
2018-08-25T10:34:59.618Z,94754.97
2018-08-25T10:37:28.852Z,94750.13
2018-08-25T10:39:58.078Z,94759.08
2018-08-25T10:42:27.298Z,94756.35
2018-08-25T10:44:56.534Z,94760.67
2018-08-25T10:47:25.767Z,94761.08
2018-08-25T10:49:54.984Z,94756.27
2018-08-25T10:52:24.209Z,94753.77
2018-08-25T10:54:53.441Z,94754.27
2018-08-25T10:57:22.706Z,94747.12
2018-08-25T10:59:51.929Z,94745.94
2018-08-25T11:02:25.492Z,94750.21
2018-08-25T11:04:54.855Z,94748.03
2018-08-25T11:07:24.660Z,94745.33
2018-08-25T11:09:54.586Z,94749.97
2018-08-25T11:12:23.859Z,94744.89
2018-08-25T11:14:53.120Z,94741.73
2018-08-25T11:17:22.353Z,94735.80
2018-08-25T11:19:51.587Z,94740.30
2018-08-25T11:22:20.819Z,94744.09
2018-08-25T11:24:50.043Z,94733.72
2018-08-25T11:27:19.263Z,94740.17
2018-08-25T11:29:48.666Z,94735.90
2018-08-25T11:32:19.007Z,94736.98
2018-08-25T11:34:48.251Z,94736.67
2018-08-25T11:37:17.514Z,94730.31
2018-08-25T11:39:46.715Z,94733.84
2018-08-25T11:42:15.949Z,94736.71
2018-08-25T11:44:45.172Z,94727.87
2018-08-25T11:47:14.903Z,94723.52
2018-08-25T11:49:44.955Z,94721.66
2018-08-25T11:52:14.335Z,94716.59
2018-08-25T11:54:43.911Z,94718.07
2018-08-25T11:57:13.995Z,94721.40
2018-08-25T11:59:43.236Z,94725.52
2018-08-25T12:02:12.560Z,94721.36
2018-08-25T12:04:41.750Z,94722.69
2018-08-25T12:07:10.971Z,94718.55
2018-08-25T12:09:40.268Z,94716.57
2018-08-25T12:12:09.435Z,94714.84
2018-08-25T12:14:38.679Z,94707.09
2018-08-25T12:20:07.566Z,94713.31
2018-08-25T12:22:37.064Z,94703.95
2018-08-25T12:25:06.659Z,94707.93
2018-08-25T12:27:35.874Z,94705.58
2018-08-25T12:30:05.265Z,94702.13
2018-08-25T12:32:34.547Z,94706.47
2018-08-25T12:35:03.767Z,94714.58
2018-08-25T12:37:33.023Z,94709.90
2018-08-25T12:40:02.268Z,94710.11
2018-08-25T12:42:31.531Z,94711.77
2018-08-25T12:45:00.778Z,94715.96
2018-08-25T12:47:30.010Z,94717.20
2018-08-25T12:49:59.216Z,94718.05
2018-08-25T12:52:28.439Z,94721.50
2018-08-25T12:54:57.672Z,94724.61
2018-08-25T12:57:26.915Z,94732.52
2018-08-25T12:59:56.143Z,94733.40
2018-08-25T13:02:25.418Z,94733.00
2018-08-25T13:04:54.664Z,94733.14
2018-08-25T13:07:23.968Z,94732.52
2018-08-25T13:09:53.227Z,94734.70
2018-08-25T13:12:22.475Z,94735.86
2018-08-25T13:14:51.775Z,94749.66
2018-08-25T13:17:21.117Z,94752.66
2018-08-25T13:19:50.364Z,94757.47
2018-08-25T13:22:19.628Z,94761.30
2018-08-25T13:24:48.935Z,94761.96
2018-08-25T13:27:18.322Z,94775.75
2018-08-25T13:29:47.600Z,94774.51
2018-08-25T13:32:16.887Z,94771.66
2018-08-25T13:34:46.162Z,94766.94
2018-08-25T13:37:15.453Z,94764.92
2018-08-25T13:39:44.702Z,94763.98
2018-08-25T13:42:13.983Z,94761.78
2018-08-25T13:44:43.292Z,94759.81
2018-08-25T13:47:12.523Z,94767.73
2018-08-25T13:49:41.840Z,94769.34
2018-08-25T13:52:11.179Z,94773.91
2018-08-25T13:54:40.458Z,94772.39
2018-08-25T13:57:09.799Z,94778.30
2018-08-25T13:59:39.111Z,94788.05
2018-08-25T14:02:08.848Z,94788.19
2018-08-25T14:04:38.128Z,94789.08
2018-08-25T14:07:07.401Z,94791.52
2018-08-25T14:09:37.804Z,94801.11
2018-08-25T14:12:07.192Z,94804.25
2018-08-25T14:14:36.495Z,94817.53
2018-08-25T14:17:05.791Z,94806.97
2018-08-25T14:19:35.161Z,94806.22
2018-08-25T14:22:04.678Z,94808.60
2018-08-25T14:24:34.015Z,94798.96
2018-08-25T14:27:03.943Z,94793.52
2018-08-25T14:29:33.372Z,94776.94
2018-08-25T14:32:02.990Z,94784.86
2018-08-25T14:34:32.462Z,94790.27
2018-08-25T14:37:01.864Z,94790.86
2018-08-25T14:39:31.261Z,94789.97
2018-08-25T14:42:00.562Z,94780.83
2018-08-25T14:44:29.827Z,94783.89
2018-08-25T14:46:59.109Z,94787.59
2018-08-25T14:49:28.427Z,94793.48
2018-08-25T14:51:57.699Z,94801.13
2018-08-25T14:54:26.980Z,94805.89
2018-08-25T14:56:56.222Z,94802.27
2018-08-25T14:59:25.499Z,94799.75
2018-08-25T15:01:54.769Z,94804.28
2018-08-25T15:04:23.999Z,94805.12
2018-08-25T15:06:53.267Z,94804.91
2018-08-25T15:09:22.492Z,94811.11
2018-08-25T15:11:51.781Z,94802.81
2018-08-25T15:14:21.075Z,94805.73
2018-08-25T15:16:50.332Z,94810.68
2018-08-25T15:19:19.611Z,94803.72
2018-08-25T15:21:49.007Z,94799.93
2018-08-25T15:24:18.270Z,94814.19
2018-08-25T15:26:47.546Z,94821.33
2018-08-25T15:29:16.832Z,94812.34
2018-08-25T15:31:46.095Z,94817.73
2018-08-25T15:34:15.434Z,94815.28
2018-08-25T15:36:44.728Z,94814.89
2018-08-25T15:39:14.941Z,94812.27
2018-08-25T15:41:44.272Z,94811.27
2018-08-25T15:44:13.609Z,94808.82
2018-08-25T15:46:42.855Z,94815.02
2018-08-25T15:49:12.111Z,94819.48
2018-08-25T15:51:41.399Z,94816.57
2018-08-25T15:54:10.975Z,94811.42
2018-08-25T15:56:40.240Z,94811.48
2018-08-25T15:59:09.512Z,94815.64
2018-08-25T16:01:38.812Z,94819.36
2018-08-25T16:04:08.100Z,94823.25
2018-08-25T16:06:37.330Z,94818.47
2018-08-25T16:09:09.576Z,94820.42
2018-08-25T16:11:38.987Z,94823.98
2018-08-25T16:14:08.250Z,94822.59
2018-08-25T16:16:37.616Z,94818.34
2018-08-25T16:19:07.069Z,94821.81
2018-08-25T16:21:36.450Z,94822.44
2018-08-25T16:24:05.718Z,94821.36
2018-08-25T16:26:34.968Z,94824.31
2018-08-25T16:29:04.240Z,94816.98
2018-08-25T16:31:33.523Z,94815.98
2018-08-25T16:34:02.813Z,94814.89
2018-08-25T16:36:32.142Z,94799.69
2018-08-25T16:39:01.390Z,94826.02
2018-08-25T16:41:30.671Z,94828.00
2018-08-25T16:43:59.968Z,94826.13
2018-08-25T16:46:29.616Z,94834.18
2018-08-25T16:48:58.891Z,94832.13
2018-08-25T16:51:28.170Z,94834.50
2018-08-25T16:53:57.453Z,94831.55
2018-08-25T16:56:26.702Z,94840.19
2018-08-25T16:58:56.128Z,94840.22
2018-08-25T17:01:25.429Z,94844.28
2018-08-25T17:03:54.722Z,94827.02
2018-08-25T17:06:24.088Z,94849.52
2018-08-25T17:08:53.590Z,94843.31
2018-08-25T17:11:23.112Z,94852.59
2018-08-25T17:13:52.624Z,94855.19
2018-08-25T17:16:22.046Z,94850.45
2018-08-25T17:18:51.457Z,94858.47
2018-08-25T17:21:20.877Z,94860.98
2018-08-25T17:23:50.268Z,94870.28
2018-08-25T17:26:19.623Z,94870.84
2018-08-25T17:28:49.034Z,94876.69
2018-08-25T17:31:18.498Z,94875.66
2018-08-25T17:33:47.924Z,94875.20
2018-08-25T17:36:17.209Z,94867.15
2018-08-25T17:38:46.540Z,94851.40
2018-08-25T17:41:15.822Z,94875.20
2018-08-25T17:43:45.111Z,94879.48
2018-08-25T17:46:14.382Z,94874.21
2018-08-25T17:48:43.818Z,94872.98
2018-08-25T17:51:13.140Z,94873.63
2018-08-25T17:53:42.369Z,94882.24
2018-08-25T17:56:12.025Z,94883.11
2018-08-25T17:58:41.287Z,94890.27
2018-08-25T18:01:10.630Z,94899.72
2018-08-25T18:03:39.954Z,94893.48
2018-08-25T18:06:09.259Z,94894.95
2018-08-25T18:08:38.519Z,94900.67
2018-08-25T18:11:07.909Z,94901.87
2018-08-25T18:13:37.220Z,94896.36
2018-08-25T18:16:06.882Z,94907.61
2018-08-25T18:18:36.426Z,94904.65
2018-08-25T18:21:06.038Z,94903.91
2018-08-25T18:23:35.450Z,94903.08
2018-08-25T18:26:05.015Z,94895.39
2018-08-25T18:28:34.669Z,94895.63
2018-08-25T18:31:05.140Z,94895.80
2018-08-25T18:33:34.704Z,94901.61
2018-08-25T18:36:04.156Z,94902.63
2018-08-25T18:38:33.775Z,94907.89
2018-08-25T18:41:03.456Z,94909.42
2018-08-25T18:43:33.336Z,94905.25
2018-08-25T18:46:03.012Z,94907.89
2018-08-25T18:48:32.533Z,94905.62
2018-08-25T18:51:01.912Z,94911.56
2018-08-25T18:53:31.321Z,94909.56
2018-08-25T18:56:00.693Z,94906.57
2018-08-25T18:58:30.199Z,94902.27
2018-08-25T19:00:59.672Z,94901.77
2018-08-25T19:03:29.247Z,94900.81
2018-08-25T19:05:58.684Z,94903.86
2018-08-25T19:08:28.139Z,94904.64
2018-08-25T19:10:57.617Z,94906.77
2018-08-25T19:13:27.092Z,94905.67
2018-08-25T19:15:56.524Z,94914.64
2018-08-25T19:18:25.930Z,94912.02
2018-08-25T19:20:55.384Z,94919.66
2018-08-25T19:23:24.790Z,94924.06
2018-08-25T19:25:54.223Z,94924.89
2018-08-25T19:28:23.924Z,94926.13
2018-08-25T19:30:53.366Z,94924.70
2018-08-25T19:33:22.864Z,94921.47
2018-08-25T19:35:52.284Z,94926.42
2018-08-25T19:38:21.801Z,94922.13
2018-08-25T19:40:51.384Z,94919.50
2018-08-25T19:43:20.890Z,94923.11
2018-08-25T19:45:50.340Z,94915.56
2018-08-25T19:48:19.896Z,94916.74
2018-08-25T19:50:49.360Z,94921.66
2018-08-25T19:53:18.885Z,94929.46
2018-08-25T19:55:48.326Z,94921.66
2018-08-25T19:58:18.139Z,94926.04
2018-08-25T20:00:47.648Z,94926.26
2018-08-25T20:03:17.087Z,94928.04
2018-08-25T20:05:47.101Z,94931.34
2018-08-25T20:08:16.594Z,94933.63
2018-08-25T20:10:46.139Z,94935.92
2018-08-25T20:13:15.669Z,94926.05
2018-08-25T20:15:45.184Z,94930.28
2018-08-25T20:18:14.976Z,94941.39
2018-08-25T20:20:44.459Z,94940.08
2018-08-25T20:23:13.813Z,94936.89
2018-08-25T20:25:43.405Z,94937.12
2018-08-25T20:28:12.951Z,94940.56
2018-08-25T20:30:42.554Z,94944.97
2018-08-25T20:33:12.095Z,94942.57
2018-08-25T20:35:41.756Z,94942.41
2018-08-25T20:38:11.254Z,94945.80
2018-08-25T20:40:41.479Z,94948.70
2018-08-25T20:43:10.900Z,94945.58
2018-08-25T20:45:40.314Z,94947.41
2018-08-25T20:48:09.753Z,94951.83
2018-08-25T20:50:39.171Z,94955.05
2018-08-25T20:53:08.608Z,94957.77
2018-08-25T20:55:37.982Z,94955.08
2018-08-25T20:58:07.517Z,94948.90
2018-08-25T21:00:36.903Z,94954.20
2018-08-25T21:03:06.300Z,94959.77
2018-08-25T21:05:35.692Z,94958.83
2018-08-25T21:08:05.011Z,94963.20
2018-08-25T21:10:34.388Z,94967.67
2018-08-25T21:13:03.731Z,94970.67
2018-08-25T21:15:33.035Z,94969.28
2018-08-25T21:18:02.392Z,94971.58
2018-08-25T21:20:31.767Z,94969.72
2018-08-25T21:23:01.411Z,94971.01
2018-08-25T21:25:30.682Z,94974.62
2018-08-25T21:27:59.964Z,94983.83
2018-08-25T21:30:30.537Z,94980.08
2018-08-25T21:32:59.923Z,94981.14
2018-08-25T21:35:29.259Z,94982.12
2018-08-25T21:37:58.636Z,94978.05
2018-08-25T21:40:28.034Z,94971.97
2018-08-25T21:42:57.486Z,94967.44
2018-08-25T21:45:26.925Z,94972.66
2018-08-25T21:47:56.204Z,94967.14
2018-08-25T21:50:25.502Z,94969.28
2018-08-25T21:52:54.899Z,94970.95
2018-08-25T21:55:24.224Z,94970.50
2018-08-25T21:57:53.544Z,94974.98
2018-08-25T22:00:22.872Z,94971.85
2018-08-25T22:02:52.280Z,94984.03
2018-08-25T22:05:21.576Z,94977.48
2018-08-25T22:07:50.888Z,94979.41
2018-08-25T22:10:20.277Z,94979.13
2018-08-25T22:12:50.243Z,94980.17
2018-08-25T22:15:19.646Z,94977.89
2018-08-25T22:17:49.736Z,94971.05
2018-08-25T22:20:19.121Z,94970.66
2018-08-25T22:22:48.741Z,94971.45
2018-08-25T22:25:18.137Z,94973.67
2018-08-25T22:27:47.457Z,94976.86
2018-08-25T22:30:16.803Z,94978.66
2018-08-25T22:32:46.125Z,94980.59
2018-08-25T22:35:15.471Z,94984.97
2018-08-25T22:37:44.875Z,94989.91
2018-08-25T22:40:14.254Z,94989.11
2018-08-25T22:42:43.577Z,94990.12
2018-08-25T22:45:12.944Z,94988.25
2018-08-25T22:47:42.297Z,94990.88
2018-08-25T22:50:11.588Z,94986.54
2018-08-25T22:52:46.241Z,94981.75
2018-08-25T22:55:15.550Z,94987.66
2018-08-25T22:57:44.866Z,94975.20
2018-08-25T23:00:14.176Z,94979.36
2018-08-25T23:02:43.533Z,94982.86
2018-08-25T23:05:12.842Z,94984.00
2018-08-25T23:07:43.538Z,94983.42
2018-08-25T23:10:12.851Z,94981.97
2018-08-25T23:12:42.133Z,94991.52
2018-08-25T23:15:11.444Z,94976.53
2018-08-25T23:17:40.872Z,94978.39
2018-08-25T23:20:10.208Z,94982.54
2018-08-25T23:22:39.648Z,94979.47
2018-08-25T23:25:08.979Z,94986.19
2018-08-25T23:27:38.300Z,94981.95
2018-08-25T23:30:07.686Z,94984.23
2018-08-25T23:32:37.041Z,94981.63
2018-08-25T23:35:06.777Z,94987.16
2018-08-25T23:37:36.122Z,94988.81
2018-08-25T23:40:05.829Z,94988.59
2018-08-25T23:42:35.447Z,94980.13
2018-08-25T23:45:05.000Z,94982.11
2018-08-25T23:47:34.415Z,94983.20
2018-08-25T23:50:04.036Z,94984.38
2018-08-25T23:52:35.816Z,94982.73
2018-08-25T23:55:07.331Z,94986.66
2018-08-25T23:57:36.788Z,94990.40
